createdAt,value
2022-08-20T00:00:39.210Z,32.12
2022-08-20T00:03:16.575Z,32.06
2022-08-20T00:05:52.798Z,32.00
2022-08-20T00:08:28.708Z,31.97
2022-08-20T00:11:01.094Z,31.89
2022-08-20T00:13:38.667Z,31.81
2022-08-20T00:16:14.004Z,31.73
2022-08-20T00:18:46.220Z,31.67
2022-08-20T00:21:20.166Z,31.61
2022-08-20T00:23:53.211Z,31.58
2022-08-20T00:26:25.769Z,31.54
2022-08-20T00:28:56.807Z,31.44
2022-08-20T00:31:27.650Z,31.35
2022-08-20T00:33:58.394Z,31.28
2022-08-20T00:36:32.307Z,31.26
2022-08-20T00:39:03.980Z,31.24
2022-08-20T00:41:35.021Z,31.23
2022-08-20T00:44:13.612Z,31.23
2022-08-20T00:46:45.825Z,31.24
2022-08-20T00:49:22.232Z,31.33
2022-08-20T00:51:57.588Z,31.40
2022-08-20T00:54:37.831Z,31.53
2022-08-20T00:57:12.293Z,31.63
2022-08-20T00:59:44.633Z,31.63
2022-08-20T01:02:18.776Z,31.69
2022-08-20T01:04:51.890Z,31.77
2022-08-20T01:07:21.507Z,31.78
2022-08-20T01:09:58.951Z,31.76
2022-08-20T01:12:32.493Z,31.68
2022-08-20T01:15:05.785Z,31.62
2022-08-20T01:17:41.775Z,31.64
2022-08-20T01:20:17.006Z,31.62
2022-08-20T01:23:09.149Z,31.58
2022-08-20T01:25:50.444Z,31.52
2022-08-20T01:28:25.684Z,31.46
2022-08-20T01:30:56.898Z,31.43
2022-08-20T01:33:28.527Z,31.43
2022-08-20T01:35:59.213Z,31.37
2022-08-20T01:38:30.640Z,31.34
2022-08-20T01:41:28.626Z,31.29
2022-08-20T01:44:00.620Z,31.32
2022-08-20T01:46:36.937Z,31.28
2022-08-20T01:49:23.359Z,31.27
2022-08-20T01:51:57.514Z,31.25
2022-08-20T01:54:29.011Z,31.22
2022-08-20T01:57:03.426Z,31.22
2022-08-20T01:59:34.148Z,31.23
2022-08-20T02:02:07.101Z,31.24
2022-08-20T02:04:38.220Z,31.23
2022-08-20T02:07:14.653Z,31.20
2022-08-20T02:09:47.544Z,31.13
2022-08-20T02:12:19.637Z,31.09
2022-08-20T02:14:53.317Z,31.06
2022-08-20T02:17:26.788Z,31.01
2022-08-20T02:20:02.678Z,30.98
2022-08-20T02:22:38.712Z,30.95
2022-08-20T02:25:12.201Z,30.91
2022-08-20T02:27:46.063Z,30.97
2022-08-20T02:30:27.585Z,30.94
2022-08-20T02:33:00.419Z,30.85
2022-08-20T02:35:32.280Z,30.76
2022-08-20T02:38:05.112Z,30.68
2022-08-20T02:40:36.555Z,30.59
2022-08-20T02:43:07.816Z,30.50
2022-08-20T02:45:44.080Z,30.46
2022-08-20T02:48:20.931Z,30.43
2022-08-20T02:50:56.780Z,30.38
2022-08-20T02:53:29.342Z,30.34
2022-08-20T02:56:01.041Z,30.32
2022-08-20T02:58:31.892Z,30.30
2022-08-20T03:01:02.969Z,30.32
2022-08-20T03:03:33.984Z,30.34
2022-08-20T03:06:05.446Z,30.44
2022-08-20T03:08:36.995Z,30.45
2022-08-20T03:11:08.662Z,30.39
2022-08-20T03:13:39.668Z,30.34
2022-08-20T03:16:11.936Z,30.38
2022-08-20T03:18:45.505Z,30.33
2022-08-20T03:21:16.253Z,30.29
2022-08-20T03:23:47.636Z,30.35
2022-08-20T03:26:18.283Z,30.29
2022-08-20T03:28:49.345Z,30.29
2022-08-20T03:31:20.537Z,30.30
2022-08-20T03:33:53.455Z,30.24
2022-08-20T03:36:27.693Z,30.20
2022-08-20T03:39:01.703Z,30.26
2022-08-20T03:41:33.327Z,30.23
2022-08-20T03:44:04.695Z,30.19
2022-08-20T03:46:36.077Z,30.25
2022-08-20T03:49:06.822Z,30.30
2022-08-20T03:51:57.360Z,30.35
2022-08-20T03:54:31.633Z,30.38
2022-08-20T03:57:03.831Z,30.35
2022-08-20T03:59:44.741Z,30.21
2022-08-20T04:02:15.607Z,30.15
2022-08-20T04:04:46.677Z,30.11
2022-08-20T04:07:20.595Z,30.04
2022-08-20T04:09:51.304Z,30.04
2022-08-20T04:12:23.510Z,30.05
2022-08-20T04:14:55.147Z,30.01
2022-08-20T04:17:26.662Z,29.97
2022-08-20T04:19:57.537Z,29.96
2022-08-20T04:22:28.385Z,29.88
2022-08-20T04:24:59.159Z,29.86
2022-08-20T04:27:32.633Z,29.88
2022-08-20T04:30:04.399Z,29.88
2022-08-20T04:32:37.093Z,29.86
2022-08-20T04:35:12.254Z,29.84
2022-08-20T04:37:43.533Z,29.87
2022-08-20T04:40:35.632Z,29.87
2022-08-20T04:43:06.934Z,29.87
2022-08-20T04:45:37.670Z,29.91
2022-08-20T04:48:14.264Z,29.94
2022-08-20T04:50:47.795Z,29.93
2022-08-20T04:53:25.270Z,29.92
2022-08-20T04:55:59.590Z,29.88
2022-08-20T04:58:34.917Z,29.78
2022-08-20T05:01:09.641Z,29.74
2022-08-20T05:03:41.564Z,29.73
2022-08-20T05:06:13.471Z,29.72
2022-08-20T05:08:44.332Z,29.76
2022-08-20T05:11:35.854Z,29.77
2022-08-20T05:14:05.386Z,29.76
2022-08-20T05:16:39.326Z,29.76
2022-08-20T05:19:12.737Z,29.77
2022-08-20T05:21:42.520Z,29.81
2022-08-20T05:24:13.206Z,29.80
2022-08-20T05:26:44.050Z,29.80
2022-08-20T05:29:14.754Z,29.84
2022-08-20T05:31:46.059Z,29.84
2022-08-20T05:34:16.965Z,29.83
2022-08-20T05:36:49.744Z,29.83
2022-08-20T05:39:22.404Z,29.80
2022-08-20T05:41:53.470Z,29.79
2022-08-20T05:44:24.610Z,29.79
2022-08-20T05:46:55.443Z,29.75
2022-08-20T05:49:26.764Z,29.77
2022-08-20T05:51:59.257Z,29.80
2022-08-20T05:54:29.897Z,29.81
2022-08-20T05:57:00.589Z,29.87
2022-08-20T05:59:31.305Z,29.88
2022-08-20T06:02:02.140Z,29.88
2022-08-20T06:04:34.400Z,29.88
2022-08-20T06:07:08.249Z,29.90
2022-08-20T06:09:41.341Z,29.92
2022-08-20T06:12:14.290Z,29.92
2022-08-20T06:14:47.366Z,30.02
2022-08-20T06:17:22.163Z,30.05
2022-08-20T06:19:53.357Z,30.06
2022-08-20T06:22:26.125Z,30.11
2022-08-20T06:24:56.209Z,30.12
2022-08-20T06:27:27.402Z,30.13
2022-08-20T06:29:58.467Z,30.24
2022-08-20T06:32:31.993Z,30.32
2022-08-20T06:35:05.986Z,30.36
2022-08-20T06:37:39.684Z,30.45
2022-08-20T06:40:14.732Z,30.48
2022-08-20T06:42:48.516Z,30.51
2022-08-20T06:45:24.458Z,30.59
2022-08-20T06:47:58.161Z,30.59
2022-08-20T06:50:31.704Z,30.59
2022-08-20T06:53:02.984Z,30.63
2022-08-20T06:55:34.210Z,30.55
2022-08-20T06:58:08.108Z,30.45
2022-08-20T07:01:04.477Z,30.50
2022-08-20T07:03:42.257Z,30.48
2022-08-20T07:06:26.981Z,30.50
2022-08-20T07:08:58.223Z,30.65
2022-08-20T07:11:29.222Z,30.81
2022-08-20T07:14:01.425Z,30.92
2022-08-20T07:16:32.817Z,30.97
2022-08-20T07:19:03.741Z,30.97
2022-08-20T07:21:34.500Z,30.99
2022-08-20T07:24:05.977Z,30.99
2022-08-20T07:26:36.714Z,31.02
2022-08-20T07:29:08.056Z,31.08
2022-08-20T07:31:56.497Z,31.14
2022-08-20T07:34:27.230Z,31.18
2022-08-20T07:37:01.631Z,31.22
2022-08-20T07:39:32.724Z,31.24
2022-08-20T07:42:07.850Z,31.27
2022-08-20T07:44:39.391Z,31.30
2022-08-20T07:47:10.475Z,31.34
2022-08-20T07:49:41.688Z,31.38
2022-08-20T07:52:13.519Z,31.42
2022-08-20T07:54:44.481Z,31.44
2022-08-20T07:57:17.416Z,31.46
2022-08-20T07:59:48.922Z,31.49
2022-08-20T08:02:20.021Z,31.51
2022-08-20T08:04:50.700Z,31.53
2022-08-20T08:07:22.222Z,31.54
2022-08-20T08:09:53.834Z,31.56
2022-08-20T08:12:29.582Z,31.60
2022-08-20T08:15:00.473Z,31.63
2022-08-20T08:17:32.294Z,31.65
2022-08-20T08:20:04.721Z,31.68
2022-08-20T08:22:35.716Z,31.68
2022-08-20T08:25:07.912Z,31.69
2022-08-20T08:27:38.999Z,31.69
2022-08-20T08:30:12.770Z,31.69
2022-08-20T08:33:04.594Z,31.71
2022-08-20T08:35:35.418Z,31.74
2022-08-20T08:38:06.147Z,31.76
2022-08-20T08:40:37.970Z,31.79
2022-08-20T08:43:11.226Z,31.81
2022-08-20T08:45:46.681Z,31.84
2022-08-20T08:48:21.288Z,31.87
2022-08-20T08:50:57.486Z,31.92
2022-08-20T08:53:36.511Z,31.95
2022-08-20T08:56:08.220Z,31.98
2022-08-20T08:58:40.016Z,32.01
2022-08-20T09:01:54.210Z,32.03
2022-08-20T09:04:06.771Z,32.05
2022-08-20T09:06:40.509Z,32.06
2022-08-20T09:09:21.397Z,32.08
2022-08-20T09:11:54.329Z,32.09
2022-08-20T09:14:26.953Z,32.11
2022-08-20T09:16:57.787Z,32.14
2022-08-20T09:19:28.729Z,32.12
2022-08-20T09:22:00.020Z,31.99
2022-08-20T09:24:30.837Z,31.87
2022-08-20T09:27:01.686Z,31.83
2022-08-20T09:29:33.532Z,31.80
2022-08-20T09:32:12.791Z,31.71
2022-08-20T09:34:47.811Z,31.74
2022-08-20T09:37:19.327Z,31.79
2022-08-20T09:39:50.467Z,31.81
2022-08-20T09:42:23.870Z,31.83
2022-08-20T09:44:55.413Z,31.85
2022-08-20T09:47:27.206Z,31.90
2022-08-20T09:49:57.951Z,31.92
2022-08-20T09:52:32.031Z,31.77
2022-08-20T09:55:06.440Z,31.72
2022-08-20T09:57:37.870Z,31.69
2022-08-20T10:00:12.497Z,31.66
2022-08-20T10:02:44.169Z,31.71
2022-08-20T10:05:15.192Z,31.82
2022-08-20T10:07:46.424Z,31.92
2022-08-20T10:10:17.797Z,31.99
2022-08-20T10:12:52.806Z,32.05
2022-08-20T10:15:25.654Z,32.08
2022-08-20T10:17:57.414Z,32.14
2022-08-20T10:20:28.874Z,32.14
2022-08-20T10:22:59.893Z,32.14
2022-08-20T10:25:30.617Z,32.14
2022-08-20T10:28:01.299Z,32.20
2022-08-20T10:30:32.472Z,32.31
2022-08-20T10:33:03.292Z,32.42
2022-08-20T10:35:34.083Z,32.49
2022-08-20T10:38:04.802Z,32.57
2022-08-20T10:40:35.572Z,32.63
2022-08-20T10:43:06.519Z,32.67
2022-08-20T10:45:37.555Z,32.73
2022-08-20T10:48:11.137Z,32.76
2022-08-20T10:50:41.970Z,32.79
2022-08-20T10:53:13.070Z,32.82
2022-08-20T10:55:43.966Z,32.84
2022-08-20T10:58:14.721Z,32.84
2022-08-20T11:00:45.951Z,32.86
2022-08-20T11:03:16.890Z,32.90
2022-08-20T11:05:48.135Z,32.95
2022-08-20T11:08:25.113Z,32.99
2022-08-20T11:11:06.454Z,32.96
2022-08-20T11:13:37.739Z,32.98
2022-08-20T11:16:08.874Z,33.04
2022-08-20T11:18:41.770Z,33.09
2022-08-20T11:21:14.381Z,33.13
2022-08-20T11:23:45.043Z,33.17
2022-08-20T11:26:23.082Z,33.20
2022-08-20T11:28:54.079Z,33.18
2022-08-20T11:31:24.914Z,33.18
2022-08-20T11:33:55.592Z,33.16
2022-08-20T11:36:26.697Z,33.20
2022-08-20T11:38:57.390Z,33.26
2022-08-20T11:41:28.095Z,33.31
2022-08-20T11:44:19.877Z,33.36
2022-08-20T11:46:49.518Z,33.39
2022-08-20T11:49:20.354Z,33.38
2022-08-20T11:51:51.035Z,33.35
2022-08-20T11:54:21.728Z,33.36
2022-08-20T11:56:52.676Z,33.40
2022-08-20T11:59:23.484Z,33.44
2022-08-20T12:02:02.991Z,33.47
2022-08-20T12:04:35.183Z,33.50
2022-08-20T12:07:13.569Z,33.53
2022-08-20T12:09:50.640Z,33.55
2022-08-20T12:12:24.102Z,33.59
2022-08-20T12:14:56.338Z,33.60
2022-08-20T12:17:29.310Z,33.63
2022-08-20T12:20:02.356Z,33.65
2022-08-20T12:22:31.585Z,33.66
2022-08-20T12:25:02.322Z,33.66
2022-08-20T12:27:35.707Z,33.70
2022-08-20T12:30:09.985Z,33.72
2022-08-20T12:32:42.352Z,33.73
2022-08-20T12:35:14.670Z,33.75
2022-08-20T12:37:47.354Z,33.77
2022-08-20T12:40:30.637Z,33.79
2022-08-20T12:43:03.676Z,33.82
2022-08-20T12:45:36.339Z,33.80
2022-08-20T12:48:09.843Z,33.76
2022-08-20T12:50:43.929Z,33.76
2022-08-20T12:53:15.201Z,33.75
2022-08-20T12:55:46.241Z,33.72
2022-08-20T12:58:17.139Z,33.71
2022-08-20T13:00:50.904Z,33.66
2022-08-20T13:03:22.862Z,33.63
2022-08-20T13:05:53.802Z,33.64
2022-08-20T13:08:24.843Z,33.60
2022-08-20T13:10:55.831Z,33.50
2022-08-20T13:13:26.703Z,33.44
2022-08-20T13:15:57.593Z,33.39
2022-08-20T13:18:28.598Z,33.29
2022-08-20T13:20:59.469Z,33.30
2022-08-20T13:23:30.755Z,33.29
2022-08-20T13:26:01.602Z,33.25
2022-08-20T13:28:32.569Z,33.25
2022-08-20T13:31:03.548Z,33.21
2022-08-20T13:33:34.686Z,33.19
2022-08-20T13:36:06.189Z,33.16
2022-08-20T13:38:37.025Z,33.10
2022-08-20T13:41:08.261Z,33.13
2022-08-20T13:43:39.196Z,33.15
2022-08-20T13:46:10.219Z,33.12
2022-08-20T13:48:41.335Z,33.08
2022-08-20T13:51:12.095Z,33.06
2022-08-20T13:53:42.997Z,32.99
2022-08-20T13:56:15.093Z,32.94
2022-08-20T13:58:46.019Z,32.87
2022-08-20T14:01:16.806Z,32.78
2022-08-20T14:03:47.926Z,32.75
2022-08-20T14:06:19.303Z,32.80
2022-08-20T14:08:50.186Z,32.81
2022-08-20T14:11:21.087Z,32.75
2022-08-20T14:13:52.066Z,32.66
2022-08-20T14:16:27.655Z,32.65
2022-08-20T14:18:58.930Z,32.53
2022-08-20T14:21:29.761Z,32.48
2022-08-20T14:24:02.253Z,32.51
2022-08-20T14:26:32.940Z,32.49
2022-08-20T14:29:04.229Z,32.54
2022-08-20T14:31:34.988Z,32.53
2022-08-20T14:34:06.079Z,32.46
2022-08-20T14:36:36.805Z,32.41
2022-08-20T14:39:07.627Z,32.32
2022-08-20T14:41:38.636Z,32.30
2022-08-20T14:44:09.477Z,32.30
2022-08-20T14:46:40.344Z,32.36
2022-08-20T14:49:11.105Z,32.41
2022-08-20T14:51:42.034Z,32.43
2022-08-20T14:54:12.945Z,32.44
2022-08-20T14:56:43.689Z,32.46
2022-08-20T14:59:14.500Z,32.45
2022-08-20T15:01:45.360Z,32.46
2022-08-20T15:04:16.304Z,32.47
2022-08-20T15:06:49.073Z,32.49
2022-08-20T15:09:19.892Z,32.50
2022-08-20T15:11:50.690Z,32.51
2022-08-20T15:14:21.549Z,32.50
2022-08-20T15:16:52.722Z,32.47
2022-08-20T15:19:24.114Z,32.35
2022-08-20T15:21:54.789Z,32.23
2022-08-20T15:24:25.603Z,32.10
2022-08-20T15:26:56.408Z,32.05
2022-08-20T15:29:27.094Z,32.01
2022-08-20T15:31:58.347Z,31.84
2022-08-20T15:34:29.279Z,31.69
2022-08-20T15:37:06.979Z,31.67
2022-08-20T15:39:38.112Z,31.61
2022-08-20T15:42:10.443Z,31.63
2022-08-20T15:44:41.750Z,31.70
2022-08-20T15:47:25.247Z,31.72
2022-08-20T15:50:01.676Z,31.76
2022-08-20T15:52:41.828Z,31.74
2022-08-20T15:55:16.914Z,31.69
2022-08-20T15:57:56.810Z,31.73
2022-08-20T16:00:34.537Z,31.74
2022-08-20T16:03:22.286Z,31.74
2022-08-20T16:06:00.983Z,31.75
2022-08-20T16:08:46.458Z,31.78
2022-08-20T16:11:30.091Z,31.77
2022-08-20T16:14:11.940Z,31.74
2022-08-20T16:16:47.423Z,31.69
2022-08-20T16:19:28.769Z,31.73
2022-08-20T16:22:01.547Z,31.78
2022-08-20T16:24:32.897Z,31.77
2022-08-20T16:27:13.864Z,31.84
2022-08-20T16:29:54.696Z,31.89
2022-08-20T16:32:38.694Z,31.94
2022-08-20T16:35:29.931Z,31.98
2022-08-20T16:38:09.138Z,32.01
2022-08-20T16:40:49.690Z,32.03
2022-08-20T16:43:26.980Z,32.02
2022-08-20T16:46:03.680Z,32.00
2022-08-20T16:48:38.807Z,31.99
2022-08-20T16:51:14.898Z,31.99
2022-08-20T16:53:45.773Z,32.00
2022-08-20T16:56:16.591Z,31.98
2022-08-20T16:58:48.577Z,31.92
2022-08-20T17:01:26.734Z,31.90
2022-08-20T17:03:57.603Z,31.90
2022-08-20T17:06:33.401Z,31.89
2022-08-20T17:09:09.948Z,31.88
2022-08-20T17:11:41.952Z,31.85
2022-08-20T17:14:16.060Z,31.84
2022-08-20T17:16:49.596Z,31.80
2022-08-20T17:19:29.186Z,31.81
2022-08-20T17:22:11.870Z,31.79
2022-08-20T17:24:42.908Z,31.75
2022-08-20T17:27:16.401Z,31.72
2022-08-20T17:29:55.077Z,31.68
2022-08-20T17:32:29.044Z,31.67
2022-08-20T17:35:02.756Z,31.67
2022-08-20T17:37:39.302Z,31.66
2022-08-20T17:40:16.802Z,31.65
2022-08-20T17:42:56.977Z,31.65
2022-08-20T17:45:32.865Z,31.64
2022-08-20T17:48:06.286Z,31.62
2022-08-20T17:50:40.687Z,31.59
2022-08-20T17:53:23.353Z,31.56
2022-08-20T17:55:58.689Z,31.54
2022-08-20T17:58:38.728Z,31.54
2022-08-20T18:01:13.309Z,31.54
2022-08-20T18:03:46.359Z,31.51
2022-08-20T18:06:30.718Z,31.49
2022-08-20T18:09:08.252Z,31.47
2022-08-20T18:11:45.246Z,31.45
2022-08-20T18:14:34.754Z,31.43
2022-08-20T18:17:28.921Z,31.41
2022-08-20T18:20:21.285Z,31.41
2022-08-20T18:22:59.363Z,31.36
2022-08-20T18:25:37.193Z,31.30
2022-08-20T18:28:16.161Z,31.23
2022-08-20T18:30:58.695Z,31.24
2022-08-20T18:33:32.869Z,31.28
2022-08-20T18:36:12.552Z,31.31
2022-08-20T18:38:57.111Z,31.37
2022-08-20T18:41:33.921Z,31.41
2022-08-20T18:44:14.361Z,31.44
2022-08-20T18:46:58.018Z,31.48
2022-08-20T18:49:34.302Z,31.49
2022-08-20T18:52:14.394Z,31.53
2022-08-20T18:54:53.336Z,31.58
2022-08-20T18:57:27.439Z,31.63
2022-08-20T19:00:10.550Z,31.65
2022-08-20T19:02:55.019Z,31.66
2022-08-20T19:05:40.626Z,31.69
2022-08-20T19:08:15.013Z,31.71
2022-08-20T19:10:54.555Z,31.74
2022-08-20T19:14:02.967Z,31.74
2022-08-20T19:16:38.331Z,31.72
2022-08-20T19:19:17.535Z,31.72
2022-08-20T19:21:47.032Z,31.75
2022-08-20T19:24:25.794Z,31.78
2022-08-20T19:27:00.402Z,31.83
2022-08-20T19:29:35.447Z,31.86
2022-08-20T19:32:09.343Z,31.88
2022-08-20T19:34:40.975Z,31.84
2022-08-20T19:37:34.873Z,31.81
2022-08-20T19:40:28.208Z,31.77
2022-08-20T19:43:01.882Z,31.76
2022-08-20T19:45:38.744Z,31.79
2022-08-20T19:48:37.050Z,31.80
2022-08-20T19:51:16.300Z,31.81
2022-08-20T19:53:50.545Z,31.82
2022-08-20T19:56:24.040Z,31.84
2022-08-20T19:59:04.585Z,31.80
2022-08-20T20:01:37.208Z,31.82
2022-08-20T20:04:16.231Z,31.84
2022-08-20T20:06:51.673Z,31.85
2022-08-20T20:09:26.267Z,31.86
2022-08-20T20:11:59.929Z,31.85
2022-08-20T20:14:33.164Z,31.84
2022-08-20T20:17:07.707Z,31.87
2022-08-20T20:19:51.260Z,31.90
2022-08-20T20:22:28.397Z,31.89
2022-08-20T20:25:07.150Z,31.89
2022-08-20T20:27:38.887Z,31.93
2022-08-20T20:30:13.881Z,31.95
2022-08-20T20:32:50.531Z,32.00
2022-08-20T20:35:30.217Z,32.01
2022-08-20T20:38:05.209Z,32.03
2022-08-20T20:40:46.111Z,32.06
2022-08-20T20:43:27.667Z,32.10
2022-08-20T20:46:07.805Z,32.14
2022-08-20T20:48:48.424Z,32.17
2022-08-20T20:51:24.655Z,32.18
2022-08-20T20:53:58.106Z,32.22
2022-08-20T20:56:32.653Z,32.26
2022-08-20T20:59:07.032Z,32.30
2022-08-20T21:01:45.707Z,32.33
2022-08-20T21:04:22.741Z,32.33
2022-08-20T21:06:54.956Z,32.21
2022-08-20T21:09:27.007Z,32.15
2022-08-20T21:11:57.748Z,32.10
2022-08-20T21:14:28.863Z,32.01
2022-08-20T21:17:02.429Z,31.91
2022-08-20T21:19:33.873Z,31.81
2022-08-20T21:22:16.160Z,31.68
2022-08-20T21:24:48.795Z,31.59
2022-08-20T21:27:23.367Z,31.52
2022-08-20T21:29:55.592Z,31.45
2022-08-20T21:32:26.641Z,31.40
2022-08-20T21:34:57.475Z,31.28
2022-08-20T21:37:28.242Z,31.22
2022-08-20T21:39:58.984Z,31.12
2022-08-20T21:42:30.078Z,30.96
2022-08-20T21:45:01.180Z,30.91
2022-08-20T21:47:32.359Z,30.85
2022-08-20T21:50:03.157Z,30.78
2022-08-20T21:52:35.465Z,30.74
2022-08-20T21:55:07.180Z,30.66
2022-08-20T21:57:38.773Z,30.62
2022-08-20T22:00:17.553Z,30.58
2022-08-20T22:02:48.308Z,30.58
2022-08-20T22:05:19.370Z,30.50
2022-08-20T22:07:50.053Z,30.40
2022-08-20T22:10:21.056Z,30.32
2022-08-20T22:12:51.881Z,30.29
2022-08-20T22:15:22.840Z,30.29
2022-08-20T22:17:53.568Z,30.31
2022-08-20T22:20:24.930Z,30.31
2022-08-20T22:22:56.468Z,30.32
2022-08-20T22:25:27.243Z,30.37
2022-08-20T22:27:57.964Z,30.36
2022-08-20T22:30:29.743Z,30.33
2022-08-20T22:33:04.653Z,30.33
2022-08-20T22:35:36.718Z,30.32
2022-08-20T22:38:07.535Z,30.25
2022-08-20T22:40:38.489Z,30.20
2022-08-20T22:43:09.411Z,30.18
2022-08-20T22:45:41.395Z,30.22
2022-08-20T22:48:13.365Z,30.24
2022-08-20T22:50:45.106Z,30.23
2022-08-20T22:53:17.213Z,30.20
2022-08-20T22:55:48.625Z,30.19
2022-08-20T22:58:20.409Z,30.19
2022-08-20T23:01:04.762Z,30.21
2022-08-20T23:03:39.458Z,30.24
2022-08-20T23:06:12.388Z,30.25
2022-08-20T23:08:45.059Z,30.28
2022-08-20T23:11:15.895Z,30.28
2022-08-20T23:13:47.664Z,30.24
2022-08-20T23:16:18.437Z,30.21
2022-08-20T23:18:49.172Z,30.22
2022-08-20T23:21:19.874Z,30.17
2022-08-20T23:23:50.729Z,30.18
2022-08-20T23:26:23.912Z,30.12
2022-08-20T23:28:53.094Z,30.05
2022-08-20T23:31:24.108Z,29.92
2022-08-20T23:33:54.898Z,29.86
2022-08-20T23:36:26.583Z,29.81
2022-08-20T23:38:57.706Z,29.81
2022-08-20T23:41:28.774Z,29.80
2022-08-20T23:43:59.940Z,29.82
2022-08-20T23:46:34.442Z,29.85
2022-08-20T23:49:05.915Z,29.82
2022-08-20T23:51:36.739Z,29.83
2022-08-20T23:54:10.008Z,29.79
2022-08-20T23:56:40.755Z,29.80
2022-08-20T23:59:11.455Z,29.78
